createdAt,value
2019-01-20T00:00:27.547Z,34.43
2019-01-20T00:03:00.580Z,35.53
2019-01-20T00:05:32.350Z,38.90
2019-01-20T00:08:03.869Z,39.27
2019-01-20T00:10:35.285Z,38.63
2019-01-20T00:13:07.052Z,33.53
2019-01-20T00:15:38.484Z,45.00
2019-01-20T00:18:09.928Z,38.27
2019-01-20T00:20:41.327Z,40.70
2019-01-20T00:23:12.776Z,34.47
2019-01-20T00:25:44.215Z,36.97
2019-01-20T00:28:15.667Z,47.17
2019-01-20T00:30:47.093Z,35.53
2019-01-20T00:33:18.564Z,34.63
2019-01-20T00:35:50.069Z,35.77
2019-01-20T00:38:21.816Z,36.83
2019-01-20T00:40:53.232Z,33.80
2019-01-20T00:43:24.697Z,32.97
2019-01-20T00:45:56.106Z,36.20
2019-01-20T00:48:27.574Z,38.47
2019-01-20T00:50:59.012Z,33.73
2019-01-20T00:53:30.540Z,34.23
2019-01-20T00:56:01.957Z,34.73
2019-01-20T00:58:33.426Z,32.37
2019-01-20T01:01:04.958Z,35.10
2019-01-20T01:03:36.431Z,36.30
2019-01-20T01:06:07.878Z,37.90
2019-01-20T01:08:39.322Z,36.40
2019-01-20T01:11:10.740Z,32.10
2019-01-20T01:13:42.295Z,30.13
2019-01-20T01:16:14.712Z,39.60
2019-01-20T01:18:46.168Z,31.80
2019-01-20T01:21:17.579Z,39.40
2019-01-20T01:23:49.119Z,33.07
2019-01-20T01:26:20.543Z,30.17
2019-01-20T01:28:52.003Z,30.90
2019-01-20T01:31:23.426Z,32.23
2019-01-20T01:33:54.886Z,30.87
2019-01-20T01:36:26.323Z,38.43
2019-01-20T01:38:59.120Z,34.53
2019-01-20T01:41:30.587Z,35.33
2019-01-20T01:44:03.015Z,30.63
2019-01-20T01:46:34.440Z,33.57
2019-01-20T01:49:05.888Z,35.33
2019-01-20T01:51:37.312Z,34.47
2019-01-20T01:54:08.747Z,36.30
2019-01-20T01:56:40.187Z,32.03
2019-01-20T01:59:11.689Z,40.30
2019-01-20T02:01:43.092Z,36.63
2019-01-20T02:04:14.656Z,35.70
2019-01-20T02:06:46.091Z,46.40
2019-01-20T02:09:17.555Z,35.57
2019-01-20T02:11:48.974Z,34.87
2019-01-20T02:14:20.601Z,42.83
2019-01-20T02:16:52.060Z,33.60
2019-01-20T02:19:23.587Z,35.10
2019-01-20T02:21:55.012Z,35.27
2019-01-20T02:24:28.083Z,46.23
2019-01-20T02:26:59.562Z,38.00
2019-01-20T02:29:31.007Z,37.77
2019-01-20T02:32:02.528Z,38.20
2019-01-20T02:34:33.985Z,40.43
2019-01-20T02:37:05.651Z,38.77
2019-01-20T02:39:37.105Z,40.20
2019-01-20T02:42:08.558Z,33.73
2019-01-20T02:44:40.020Z,38.63
2019-01-20T02:47:11.439Z,43.33
2019-01-20T02:49:42.901Z,37.33
2019-01-20T02:52:14.397Z,38.03
2019-01-20T02:54:45.783Z,38.67
2019-01-20T02:57:17.187Z,35.93
2019-01-20T02:59:48.633Z,42.80
2019-01-20T03:02:20.067Z,40.63
2019-01-20T03:04:51.563Z,42.63
2019-01-20T03:07:22.966Z,40.60
2019-01-20T03:09:54.478Z,39.97
2019-01-20T03:12:25.911Z,41.50
2019-01-20T03:14:58.329Z,30.73
2019-01-20T03:17:29.747Z,36.13
2019-01-20T03:20:01.241Z,34.83
2019-01-20T03:22:32.679Z,34.13
2019-01-20T03:25:04.328Z,35.30
2019-01-20T03:27:35.767Z,35.00
2019-01-20T03:30:11.801Z,32.90
2019-01-20T03:32:43.217Z,25.20
2019-01-20T03:35:17.263Z,27.47
2019-01-20T03:37:48.790Z,26.03
2019-01-20T03:40:20.451Z,21.87
2019-01-20T03:42:51.876Z,23.47
2019-01-20T03:45:23.573Z,30.70
2019-01-20T03:47:55.001Z,20.53
2019-01-20T03:50:26.451Z,23.60
2019-01-20T03:52:57.861Z,36.57
2019-01-20T03:55:29.324Z,27.73
2019-01-20T03:58:00.766Z,25.10
2019-01-20T04:00:32.227Z,29.53
2019-01-20T04:03:04.163Z,26.37
2019-01-20T04:05:35.606Z,27.37
2019-01-20T04:08:07.097Z,21.97
2019-01-20T04:10:38.537Z,20.80
2019-01-20T04:13:10.026Z,29.33
2019-01-20T04:15:41.489Z,22.27
2019-01-20T04:18:12.947Z,27.00
2019-01-20T04:20:44.395Z,26.00
2019-01-20T04:23:15.826Z,26.37
2019-01-20T04:25:48.579Z,23.70
2019-01-20T04:28:20.005Z,23.27
2019-01-20T04:30:51.495Z,20.33
2019-01-20T04:33:25.717Z,26.87
2019-01-20T04:35:57.083Z,27.53
2019-01-20T04:38:28.492Z,21.53
2019-01-20T04:40:59.970Z,23.97
2019-01-20T04:43:31.476Z,24.57
2019-01-20T04:46:04.710Z,25.30
2019-01-20T04:48:36.120Z,23.20
2019-01-20T04:51:07.572Z,23.87
2019-01-20T04:53:39.576Z,30.53
2019-01-20T04:56:11.078Z,28.43
2019-01-20T04:58:42.606Z,23.77
2019-01-20T05:01:14.089Z,28.40
2019-01-20T05:03:45.531Z,31.30
2019-01-20T05:06:16.926Z,28.13
2019-01-20T05:08:48.401Z,29.30
2019-01-20T05:11:19.843Z,28.70
2019-01-20T05:13:51.256Z,29.80
2019-01-20T05:16:22.639Z,29.13
2019-01-20T05:18:54.061Z,25.50
2019-01-20T05:21:25.538Z,27.40
2019-01-20T05:23:56.968Z,30.63
2019-01-20T05:26:29.396Z,25.80
2019-01-20T05:29:00.760Z,27.43
2019-01-20T05:31:32.228Z,31.13
2019-01-20T05:34:03.752Z,32.53
2019-01-20T05:36:35.224Z,26.97
2019-01-20T05:39:09.269Z,27.67
2019-01-20T05:41:40.724Z,29.97
2019-01-20T05:44:12.159Z,27.23
2019-01-20T05:46:45.991Z,29.77
2019-01-20T05:49:17.444Z,31.10
2019-01-20T05:51:48.887Z,30.40
2019-01-20T05:54:21.213Z,33.13
2019-01-20T05:56:52.578Z,26.87
2019-01-20T05:59:23.964Z,32.63
2019-01-20T06:01:55.463Z,33.73
2019-01-20T06:04:26.902Z,26.00
2019-01-20T06:06:58.372Z,27.37
2019-01-20T06:09:29.803Z,31.60
2019-01-20T06:12:01.259Z,36.27
2019-01-20T06:14:32.686Z,51.23
2019-01-20T06:17:04.176Z,41.07
2019-01-20T06:19:35.599Z,37.53
2019-01-20T06:22:07.062Z,33.80
2019-01-20T06:24:38.482Z,40.27
2019-01-20T06:27:09.959Z,29.70
2019-01-20T06:29:41.412Z,34.60
2019-01-20T06:32:12.863Z,32.87
2019-01-20T06:34:44.286Z,31.77
2019-01-20T06:37:15.766Z,36.40
2019-01-20T06:39:47.388Z,34.07
2019-01-20T06:42:18.838Z,37.97
2019-01-20T06:44:50.273Z,35.63
2019-01-20T06:47:21.712Z,38.17
2019-01-20T06:49:53.138Z,36.30
2019-01-20T06:52:24.612Z,36.87
2019-01-20T06:54:56.035Z,42.90
2019-01-20T06:57:27.523Z,37.03
2019-01-20T07:00:03.062Z,36.20
2019-01-20T07:02:34.682Z,39.27
2019-01-20T07:05:06.852Z,40.87
2019-01-20T07:07:38.400Z,48.47
2019-01-20T07:10:11.143Z,36.63
2019-01-20T07:12:42.612Z,39.37
2019-01-20T07:15:24.976Z,45.13
2019-01-20T07:17:56.501Z,46.33
2019-01-20T07:20:27.934Z,43.37
2019-01-20T07:22:59.304Z,37.70
2019-01-20T07:25:30.772Z,51.33
2019-01-20T07:28:02.234Z,49.63
2019-01-20T07:30:33.692Z,53.03
2019-01-20T07:33:05.718Z,44.77
2019-01-20T07:35:37.210Z,41.50
2019-01-20T07:38:08.684Z,33.17
2019-01-20T07:40:40.172Z,40.10
2019-01-20T07:43:16.719Z,31.77
2019-01-20T07:45:44.773Z,31.00
2019-01-20T07:48:16.269Z,29.80
2019-01-20T07:50:47.892Z,36.80
2019-01-20T07:53:19.332Z,36.70
2019-01-20T07:55:51.064Z,41.17
2019-01-20T07:58:22.509Z,43.87
2019-01-20T08:00:53.950Z,44.60
2019-01-20T08:03:25.388Z,52.93
2019-01-20T08:05:56.854Z,48.27
2019-01-20T08:08:28.301Z,46.03
2019-01-20T08:10:59.778Z,37.93
2019-01-20T08:13:31.238Z,42.07
2019-01-20T08:16:02.742Z,43.93
2019-01-20T08:18:34.203Z,40.73
2019-01-20T08:21:05.675Z,43.43
2019-01-20T08:23:37.159Z,52.00
2019-01-20T08:26:08.582Z,46.83
2019-01-20T08:28:40.043Z,43.83
2019-01-20T08:31:11.469Z,40.53
2019-01-20T08:33:42.851Z,42.57
2019-01-20T08:36:14.304Z,49.20
2019-01-20T08:38:45.876Z,39.80
2019-01-20T08:41:17.344Z,41.60
2019-01-20T08:43:48.843Z,41.50
2019-01-20T08:46:37.130Z,47.90
2019-01-20T08:49:10.287Z,42.97
2019-01-20T08:51:43.335Z,32.50
2019-01-20T08:54:14.821Z,37.70
2019-01-20T08:56:46.239Z,39.67
2019-01-20T08:59:17.721Z,38.80
2019-01-20T09:01:49.270Z,36.93
2019-01-20T09:04:21.343Z,48.63
2019-01-20T09:06:52.748Z,42.80
2019-01-20T09:09:24.253Z,39.20
2019-01-20T09:11:55.699Z,37.70
2019-01-20T09:14:27.078Z,32.60
2019-01-20T09:16:58.518Z,41.73
2019-01-20T09:19:34.052Z,29.47
2019-01-20T09:22:05.997Z,38.50
2019-01-20T09:24:37.550Z,32.87
2019-01-20T09:27:08.986Z,36.23
2019-01-20T09:29:43.492Z,38.97
2019-01-20T09:32:14.908Z,44.00
2019-01-20T09:34:46.369Z,35.03
2019-01-20T09:37:17.826Z,48.13
2019-01-20T09:39:49.299Z,40.77
2019-01-20T09:42:21.718Z,49.87
2019-01-20T09:44:53.167Z,68.50
2019-01-20T09:47:24.670Z,36.37
2019-01-20T09:49:56.164Z,40.53
2019-01-20T09:52:27.601Z,41.63
2019-01-20T09:54:59.071Z,42.70
2019-01-20T09:57:31.392Z,38.33
2019-01-20T10:00:03.606Z,35.07
2019-01-20T10:02:35.131Z,36.17
2019-01-20T10:05:07.444Z,31.17
2019-01-20T10:07:38.936Z,32.60
2019-01-20T10:10:13.766Z,32.70
2019-01-20T10:12:45.214Z,29.73
2019-01-20T10:15:16.969Z,26.50
2019-01-20T10:17:48.436Z,25.27
2019-01-20T10:20:23.431Z,25.63
2019-01-20T10:22:54.816Z,30.60
2019-01-20T10:25:26.280Z,29.23
2019-01-20T10:27:57.833Z,28.60
2019-01-20T10:30:37.171Z,27.00
2019-01-20T10:33:08.645Z,24.37
2019-01-20T10:35:51.258Z,24.77
2019-01-20T10:38:22.787Z,22.43
2019-01-20T10:40:54.255Z,26.97
2019-01-20T10:43:25.672Z,29.63
2019-01-20T10:45:57.195Z,29.63
2019-01-20T10:48:28.635Z,28.30
2019-01-20T10:51:02.071Z,32.30
2019-01-20T10:53:36.727Z,27.60
2019-01-20T10:56:08.262Z,25.47
2019-01-20T10:58:42.517Z,29.00
2019-01-20T11:01:15.639Z,27.37
2019-01-20T11:03:49.867Z,28.43
2019-01-20T11:06:21.363Z,28.17
2019-01-20T11:08:52.836Z,30.30
2019-01-20T11:11:24.315Z,27.90
2019-01-20T11:13:57.431Z,89.43
2019-01-20T11:16:28.921Z,37.70
2019-01-20T11:19:00.368Z,32.97
2019-01-20T11:21:31.857Z,27.53
2019-01-20T11:24:03.292Z,29.63
2019-01-20T11:26:34.965Z,21.50
2019-01-20T11:29:09.363Z,34.60
2019-01-20T11:31:40.877Z,27.67
2019-01-20T11:34:12.316Z,33.10
2019-01-20T11:36:43.935Z,46.67
2019-01-20T11:39:15.349Z,34.30
2019-01-20T11:41:48.395Z,24.80
2019-01-20T11:44:19.819Z,32.17
2019-01-20T11:46:51.281Z,23.87
2019-01-20T11:49:22.729Z,37.63
2019-01-20T11:52:01.298Z,44.23
2019-01-20T11:54:30.003Z,35.57
2019-01-20T11:57:01.430Z,31.63
2019-01-20T11:59:32.876Z,30.30
2019-01-20T12:02:06.825Z,27.60
2019-01-20T12:04:47.983Z,37.60
2019-01-20T12:07:19.454Z,27.30
2019-01-20T12:09:53.837Z,30.90
2019-01-20T12:12:26.963Z,29.73
2019-01-20T12:14:59.164Z,34.27
2019-01-20T12:17:30.807Z,34.40
2019-01-20T12:20:02.296Z,39.53
2019-01-20T12:22:33.747Z,62.97
2019-01-20T12:25:07.180Z,35.63
2019-01-20T12:27:41.761Z,42.90
2019-01-20T12:30:18.022Z,36.23
2019-01-20T12:32:50.451Z,44.90
2019-01-20T12:35:21.921Z,40.80
2019-01-20T12:37:53.399Z,42.10
2019-01-20T12:40:35.510Z,49.70
2019-01-20T12:43:06.964Z,44.27
2019-01-20T12:45:38.389Z,49.97
2019-01-20T12:48:14.126Z,53.67
2019-01-20T12:50:45.634Z,49.83
2019-01-20T12:53:17.103Z,52.10
2019-01-20T12:55:48.534Z,58.47
2019-01-20T12:58:19.984Z,50.63
2019-01-20T13:00:56.843Z,54.33
2019-01-20T13:03:29.273Z,43.37
2019-01-20T13:06:02.342Z,49.87
2019-01-20T13:08:33.931Z,128.73
2019-01-20T13:11:05.588Z,49.00
2019-01-20T13:13:37.031Z,49.13
2019-01-20T13:16:08.465Z,51.60
2019-01-20T13:18:39.929Z,54.23
2019-01-20T13:21:11.493Z,50.50
2019-01-20T13:23:42.947Z,47.90
2019-01-20T13:26:14.362Z,46.60
2019-01-20T13:28:45.813Z,45.33
2019-01-20T13:31:17.206Z,50.70
2019-01-20T13:33:48.651Z,50.37
2019-01-20T13:36:20.078Z,46.17
2019-01-20T13:38:51.553Z,47.30
2019-01-20T13:41:32.057Z,56.57
2019-01-20T13:44:03.528Z,50.80
2019-01-20T13:46:34.978Z,54.87
2019-01-20T13:49:06.543Z,55.67
2019-01-20T13:51:37.959Z,52.30
2019-01-20T13:54:11.437Z,55.60
2019-01-20T13:56:42.779Z,46.60
2019-01-20T13:59:14.249Z,43.93
2019-01-20T14:01:45.694Z,45.37
2019-01-20T14:04:17.213Z,48.70
2019-01-20T14:06:48.712Z,43.10
2019-01-20T14:09:20.172Z,45.73
2019-01-20T14:11:51.688Z,53.40
2019-01-20T14:14:23.134Z,51.00
2019-01-20T14:16:54.594Z,50.60
2019-01-20T14:19:26.061Z,48.47
2019-01-20T14:21:57.490Z,50.63
2019-01-20T14:24:28.965Z,49.37
2019-01-20T14:27:00.404Z,55.63
2019-01-20T14:29:31.938Z,63.57
2019-01-20T14:32:03.441Z,55.57
2019-01-20T14:34:34.919Z,53.83
2019-01-20T14:37:06.367Z,52.10
2019-01-20T14:39:37.820Z,60.13
2019-01-20T14:42:09.309Z,52.77
2019-01-20T14:44:40.763Z,51.50
2019-01-20T14:47:12.217Z,61.50
2019-01-20T14:49:43.683Z,96.53
2019-01-20T14:52:15.074Z,63.50
2019-01-20T14:54:46.570Z,49.37
2019-01-20T14:57:17.995Z,80.03
2019-01-20T14:59:49.374Z,59.93
2019-01-20T15:02:20.816Z,72.60
2019-01-20T15:04:52.441Z,108.10
2019-01-20T15:07:23.901Z,60.90
2019-01-20T15:09:55.466Z,60.53
2019-01-20T15:12:26.846Z,145.40
2019-01-20T15:14:58.308Z,84.00
2019-01-20T15:17:29.755Z,60.83
2019-01-20T15:20:01.256Z,84.60
2019-01-20T15:22:32.713Z,64.43
2019-01-20T15:25:04.606Z,61.33
2019-01-20T15:27:36.043Z,65.60
2019-01-20T15:30:15.684Z,70.37
2019-01-20T15:32:47.195Z,76.13
2019-01-20T15:35:18.646Z,73.87
2019-01-20T15:37:50.121Z,58.63
2019-01-20T15:40:21.995Z,82.47
2019-01-20T15:42:53.429Z,70.13
2019-01-20T15:45:25.533Z,74.70
2019-01-20T15:47:56.944Z,65.30
2019-01-20T15:50:31.022Z,66.73
2019-01-20T15:53:02.469Z,60.03
2019-01-20T15:55:33.974Z,62.17
2019-01-20T15:58:05.440Z,69.20
2019-01-20T16:00:36.881Z,68.63
2019-01-20T16:03:08.472Z,66.60
2019-01-20T16:05:39.916Z,74.63
2019-01-20T16:08:11.967Z,66.60
2019-01-20T16:10:43.488Z,66.23
2019-01-20T16:13:14.914Z,59.90
2019-01-20T16:15:46.354Z,61.83
2019-01-20T16:18:17.795Z,80.63
2019-01-20T16:20:49.292Z,102.20
2019-01-20T16:23:20.706Z,71.57
2019-01-20T16:25:52.180Z,75.50
2019-01-20T16:28:23.623Z,78.33
2019-01-20T16:30:55.109Z,61.30
2019-01-20T16:33:26.533Z,66.77
2019-01-20T16:35:57.920Z,72.20
2019-01-20T16:38:29.354Z,71.10
2019-01-20T16:41:02.601Z,64.37
2019-01-20T16:43:34.001Z,70.87
2019-01-20T16:46:05.470Z,66.50
2019-01-20T16:48:36.886Z,69.33
2019-01-20T16:51:08.345Z,65.10
2019-01-20T16:53:39.772Z,72.07
2019-01-20T16:56:11.219Z,65.37
2019-01-20T16:58:42.643Z,64.70
2019-01-20T17:01:14.107Z,69.27
2019-01-20T17:03:45.545Z,87.77
2019-01-20T17:06:17.048Z,71.73
2019-01-20T17:08:48.475Z,71.93
2019-01-20T17:11:19.835Z,84.17
2019-01-20T17:13:51.269Z,77.63
2019-01-20T17:16:22.713Z,79.67
2019-01-20T17:18:54.358Z,77.40
2019-01-20T17:21:25.845Z,82.37
2019-01-20T17:23:57.279Z,82.90
2019-01-20T17:26:28.757Z,72.70
2019-01-20T17:29:00.199Z,75.57
2019-01-20T17:31:31.669Z,69.93
2019-01-20T17:34:03.103Z,73.30
2019-01-20T17:36:34.591Z,67.30
2019-01-20T17:39:11.986Z,74.87
2019-01-20T17:41:42.902Z,71.10
2019-01-20T17:44:14.345Z,69.80
2019-01-20T17:46:45.803Z,61.87
2019-01-20T17:49:17.247Z,69.10
2019-01-20T17:51:48.756Z,73.50
2019-01-20T17:54:20.196Z,77.03
2019-01-20T17:56:51.674Z,75.20
2019-01-20T17:59:23.100Z,72.00
2019-01-20T18:01:54.576Z,69.73
2019-01-20T18:04:26.014Z,71.27
2019-01-20T18:06:57.511Z,68.13
2019-01-20T18:09:28.944Z,78.03
2019-01-20T18:12:00.441Z,73.40
2019-01-20T18:14:31.881Z,81.53
2019-01-20T18:17:03.386Z,75.23
2019-01-20T18:19:34.796Z,65.50
2019-01-20T18:22:06.269Z,63.43
2019-01-20T18:24:37.726Z,69.63
2019-01-20T18:27:09.196Z,65.67
2019-01-20T18:29:43.657Z,74.63
2019-01-20T18:32:15.105Z,86.30
2019-01-20T18:34:46.546Z,66.10
2019-01-20T18:37:18.011Z,65.40
2019-01-20T18:39:49.433Z,67.90
2019-01-20T18:42:20.905Z,75.27
2019-01-20T18:44:52.405Z,80.27
2019-01-20T18:47:23.790Z,70.30
2019-01-20T18:49:55.246Z,81.27
2019-01-20T18:52:26.756Z,82.27
2019-01-20T18:54:58.204Z,81.50
2019-01-20T18:57:29.848Z,84.70
2019-01-20T19:00:01.313Z,79.40
2019-01-20T19:02:34.388Z,82.07
2019-01-20T19:05:10.187Z,81.07
2019-01-20T19:07:42.014Z,84.73
2019-01-20T19:10:15.129Z,83.20
2019-01-20T19:12:46.836Z,78.03
2019-01-20T19:15:19.470Z,87.50
2019-01-20T19:17:51.022Z,83.30
2019-01-20T19:20:23.699Z,86.40
2019-01-20T19:22:56.614Z,76.33
2019-01-20T19:25:28.525Z,85.83
2019-01-20T19:28:00.104Z,85.70
2019-01-20T19:30:34.153Z,93.30
2019-01-20T19:33:07.715Z,96.13
2019-01-20T19:35:39.807Z,92.67
2019-01-20T19:38:11.681Z,91.00
2019-01-20T19:40:43.704Z,103.63
2019-01-20T19:43:15.911Z,98.23
2019-01-20T19:45:47.882Z,99.07
2019-01-20T19:48:20.390Z,98.03
2019-01-20T19:50:52.226Z,99.80
2019-01-20T19:53:23.678Z,99.77
2019-01-20T19:55:55.141Z,92.60
2019-01-20T19:58:26.648Z,99.30
2019-01-20T20:00:58.116Z,97.53
2019-01-20T20:03:29.532Z,102.97
2019-01-20T20:06:00.990Z,109.20
2019-01-20T20:08:32.582Z,98.43
2019-01-20T20:11:04.010Z,103.07
2019-01-20T20:13:35.498Z,95.97
2019-01-20T20:16:06.962Z,98.60
2019-01-20T20:18:38.453Z,101.97
2019-01-20T20:21:09.894Z,104.03
2019-01-20T20:23:41.363Z,107.50
2019-01-20T20:26:12.874Z,104.37
2019-01-20T20:28:44.362Z,100.83
2019-01-20T20:31:15.878Z,104.53
2019-01-20T20:33:47.264Z,107.57
2019-01-20T20:36:18.716Z,96.63
2019-01-20T20:38:50.191Z,95.47
2019-01-20T20:41:21.667Z,107.03
2019-01-20T20:43:53.132Z,96.43
2019-01-20T20:46:30.504Z,105.57
2019-01-20T20:48:57.750Z,105.13
2019-01-20T20:51:29.187Z,94.07
2019-01-20T20:54:00.649Z,110.57
2019-01-20T20:56:32.103Z,103.00
2019-01-20T20:59:03.582Z,97.97
2019-01-20T21:01:35.077Z,98.70
2019-01-20T21:04:06.543Z,104.80
2019-01-20T21:06:38.001Z,102.13
2019-01-20T21:09:10.867Z,111.90
2019-01-20T21:11:42.391Z,102.10
2019-01-20T21:14:13.878Z,102.07
2019-01-20T21:16:45.321Z,105.03
2019-01-20T21:19:16.865Z,99.90
2019-01-20T21:21:48.310Z,97.40
2019-01-20T21:24:19.815Z,103.77
2019-01-20T21:26:51.264Z,101.70
2019-01-20T21:29:23.719Z,103.67
2019-01-20T21:31:55.165Z,109.97
2019-01-20T21:34:26.626Z,97.40
2019-01-20T21:36:58.067Z,103.47
2019-01-20T21:39:29.568Z,111.93
2019-01-20T21:42:00.991Z,106.20
2019-01-20T21:44:32.391Z,107.13
2019-01-20T21:47:03.836Z,107.67
2019-01-20T21:49:35.299Z,110.87
2019-01-20T21:52:06.784Z,111.47
2019-01-20T21:54:38.229Z,105.93
2019-01-20T21:57:09.666Z,105.70
2019-01-20T21:59:41.173Z,99.43
2019-01-20T22:02:12.623Z,100.33
2019-01-20T22:04:44.101Z,108.70
2019-01-20T22:07:15.459Z,108.57
2019-01-20T22:09:47.022Z,106.97
2019-01-20T22:12:18.504Z,108.87
2019-01-20T22:14:49.933Z,104.77
2019-01-20T22:17:21.378Z,104.20
2019-01-20T22:19:52.850Z,109.30
2019-01-20T22:22:24.318Z,112.80
2019-01-20T22:24:55.764Z,101.47
2019-01-20T22:27:27.215Z,103.17
2019-01-20T22:29:58.681Z,97.97
2019-01-20T22:32:30.117Z,93.60
2019-01-20T22:35:01.612Z,103.50
2019-01-20T22:37:33.047Z,102.83
2019-01-20T22:40:05.126Z,100.10
2019-01-20T22:42:36.543Z,99.30
2019-01-20T22:45:10.095Z,112.10
2019-01-20T22:47:41.511Z,96.50
2019-01-20T22:50:13.637Z,104.20
2019-01-20T22:52:45.133Z,95.73
2019-01-20T22:55:16.835Z,103.60
2019-01-20T22:57:48.277Z,97.60
2019-01-20T23:01:02.683Z,100.60
2019-01-20T23:03:34.369Z,97.20
2019-01-20T23:06:05.829Z,101.70
2019-01-20T23:08:37.233Z,105.37
2019-01-20T23:11:08.690Z,104.23
2019-01-20T23:13:41.120Z,94.17
2019-01-20T23:16:12.722Z,99.97
2019-01-20T23:18:44.173Z,106.13
2019-01-20T23:21:15.611Z,115.00
2019-01-20T23:23:47.109Z,108.67
2019-01-20T23:26:18.552Z,103.73
2019-01-20T23:28:50.094Z,102.63
2019-01-20T23:31:21.531Z,107.93
2019-01-20T23:33:52.956Z,107.00
2019-01-20T23:36:24.420Z,107.23
2019-01-20T23:38:55.871Z,119.47
2019-01-20T23:41:27.378Z,115.33
2019-01-20T23:43:58.814Z,103.90
2019-01-20T23:46:30.319Z,110.00
2019-01-20T23:49:01.739Z,116.70
2019-01-20T23:51:33.208Z,107.63
2019-01-20T23:54:04.656Z,107.50
2019-01-20T23:56:36.120Z,104.60
2019-01-20T23:59:07.550Z,104.50
